Time;durP1;ratioP1;P1;durP2;ratioP2;P2;SDS_P1;SDS_P2;PMS_P1;PMS_P2;Temp;Humidity;BMP_temperature;BMP_pressure;BME280_temperature;BME280_humidity;BME280_pressure;Samples;Min_cycle;Max_cycle;Signal;HPM_P1;HPM_P2
2021/06/24 00:01:57;;;;;;;92.18;87.85;;;;;;;;;;5114323;27;20407;-87
2021/06/24 00:04:24;;;;;;;82.95;78.68;;;;;;;;;;5114084;27;20373;-86
2021/06/24 00:06:50;;;;;;;64.77;61.37;;;;;;;;;;5114116;27;20392;-85
2021/06/24 00:09:16;;;;;;;68.25;64.50;;;;;;;;;;5113777;27;20467;-87
2021/06/24 00:11:42;;;;;;;64.63;61.40;;;;;;;;;;5113487;27;20377;-85
2021/06/24 00:14:08;;;;;;;53.95;50.92;;;;;;;;;;5113703;27;20375;-86
2021/06/24 00:16:34;;;;;;;51.38;48.75;;;;;;;;;;5113283;27;20373;-86
2021/06/24 00:19:00;;;;;;;53.65;50.97;;;;;;;;;;5112990;27;20450;-87
2021/06/24 00:21:26;;;;;;;45.45;42.88;;;;;;;;;;5113364;27;20368;-86
2021/06/24 00:23:52;;;;;;;54.25;51.38;;;;;;;;;;5113418;27;20362;-86
2021/06/24 00:26:18;;;;;;;54.08;51.28;;;;;;;;;;5112679;27;20365;-86
2021/06/24 00:28:44;;;;;;;55.60;52.65;;;;;;;;;;5112629;27;20365;-86
2021/06/24 00:31:10;;;;;;;55.67;52.83;;;;;;;;;;5113364;27;20464;-86
2021/06/24 00:33:36;;;;;;;56.83;53.83;;;;;;;;;;5113213;27;20409;-86
2021/06/24 00:36:02;;;;;;;55.75;52.83;;;;;;;;;;5113495;27;20407;-86
2021/06/24 00:38:28;;;;;;;46.00;43.55;;;;;;;;;;5112832;27;20377;-87
2021/06/24 00:40:54;;;;;;;42.22;39.90;;;;;;;;;;5113126;27;20377;-86
2021/06/24 00:43:23;;;;;;;31.75;29.92;;;;;;;;;;5113402;27;20780;-86
2021/06/24 00:45:49;;;;;;;28.67;27.13;;;;;;;;;;5113103;27;20384;-86
2021/06/24 07:09:55;;;;;;;15.48;12.32;;;;;;;;;;5135996;27;20392;-87
2021/06/24 07:12:21;;;;;;;13.13;10.90;;;;;;;;;;5114635;27;20440;-87
2021/06/24 07:36:31;;;;;;;16.75;12.38;;;;;;;;;;5135788;27;20384;-85
2021/06/24 07:38:57;;;;;;;15.33;11.33;;;;;;;;;;5114475;27;20380;-86
2021/06/24 07:41:24;;;;;;;15.85;11.40;;;;;;;;;;5113621;27;20951;-85
2021/06/24 08:42:02;;;;;;;11.07;9.60;;;;;;;;;;5131625;27;20437;-87
2021/06/24 08:44:28;;;;;;;12.55;10.73;;;;;;;;;;5112526;27;20408;-85
2021/06/24 08:46:57;;;;;;;11.90;10.60;;;;;;;;;;5113025;27;20410;-84
2021/06/24 08:49:24;;;;;;;13.93;11.13;;;;;;;;;;5108517;27;20527;-85
2021/06/24 08:51:54;;;;;;;12.13;10.82;;;;;;;;;;5130513;27;20369;-88
2021/06/24 08:54:20;;;;;;;16.42;11.90;;;;;;;;;;5110941;27;20440;-87
2021/06/24 08:56:46;;;;;;;15.90;11.48;;;;;;;;;;5108048;27;20385;-85
2021/06/24 08:59:12;;;;;;;12.98;10.50;;;;;;;;;;5129419;27;20366;-85
2021/06/24 09:01:56;;;;;;;13.05;10.52;;;;;;;;;;5110886;27;20385;-87
2021/06/24 09:04:42;;;;;;;12.05;10.32;;;;;;;;;;5110557;27;20739;-87
2021/06/24 09:07:22;;;;;;;13.60;10.93;;;;;;;;;;5113398;27;20410;-86
2021/06/24 09:09:49;;;;;;;15.53;11.17;;;;;;;;;;5110509;27;20388;-85
2021/06/24 09:12:18;;;;;;;14.57;10.50;;;;;;;;;;5109183;27;20404;-86
2021/06/24 09:14:45;;;;;;;11.23;9.20;;;;;;;;;;5112432;27;20381;-86
2021/06/24 09:17:32;;;;;;;12.63;9.65;;;;;;;;;;5107869;27;20377;-86
2021/06/24 09:20:03;;;;;;;14.65;9.73;;;;;;;;;;5107382;27;20888;-87
2021/06/24 09:22:29;;;;;;;10.45;8.80;;;;;;;;;;5109866;27;20412;-84
2021/06/24 09:25:00;;;;;;;9.80;8.35;;;;;;;;;;5109355;27;20369;-88
2021/06/24 09:27:30;;;;;;;12.88;10.02;;;;;;;;;;5107384;27;20414;-86
2021/06/24 09:30:01;;;;;;;10.95;9.02;;;;;;;;;;5108110;27;20377;-87
2021/06/24 09:32:31;;;;;;;12.18;10.02;;;;;;;;;;5108780;27;20409;-88
2021/06/24 09:35:08;;;;;;;11.52;9.75;;;;;;;;;;5108975;27;20404;-89
2021/06/24 09:37:53;;;;;;;11.77;10.10;;;;;;;;;;5106005;27;20477;-86
2021/06/24 09:40:20;;;;;;;11.75;9.57;;;;;;;;;;5108220;27;20381;-85
2021/06/24 09:42:46;;;;;;;13.00;9.43;;;;;;;;;;5125789;27;20377;-88
2021/06/24 09:45:14;;;;;;;11.55;8.75;;;;;;;;;;5108505;27;20395;-86
2021/06/24 09:47:40;;;;;;;14.88;10.82;;;;;;;;;;5108075;27;20425;-87
2021/06/24 09:50:07;;;;;;;12.38;9.68;;;;;;;;;;5127024;27;20915;-85
2021/06/24 09:52:34;;;;;;;15.05;10.50;;;;;;;;;;5108620;27;20436;-87
2021/06/24 09:55:08;;;;;;;14.10;10.60;;;;;;;;;;5110782;27;20385;-86
2021/06/24 09:57:34;;;;;;;13.10;10.20;;;;;;;;;;5122763;27;20475;-84
2021/06/24 10:00:18;;;;;;;15.98;11.20;;;;;;;;;;5107883;27;20772;-86
2021/06/24 10:03:03;;;;;;;11.85;10.25;;;;;;;;;;5109561;27;20788;-84
2021/06/24 10:05:31;;;;;;;14.35;10.82;;;;;;;;;;5108140;27;20377;-84
2021/06/24 10:07:57;;;;;;;13.20;11.40;;;;;;;;;;5107923;27;20381;-84
2021/06/24 10:10:24;;;;;;;14.75;11.52;;;;;;;;;;5127792;27;20405;-84
2021/06/24 10:12:50;;;;;;;15.95;12.18;;;;;;;;;;5110198;27;20874;-83
2021/06/24 10:15:17;;;;;;;12.80;10.63;;;;;;;;;;5129864;27;20401;-84
2021/06/24 10:17:47;;;;;;;12.20;10.30;;;;;;;;;;5109330;27;20385;-82
2021/06/24 10:20:13;;;;;;;14.17;10.03;;;;;;;;;;5110797;27;20385;-82
2021/06/24 10:22:41;;;;;;;13.98;10.75;;;;;;;;;;5111260;27;20776;-82
2021/06/24 10:25:10;;;;;;;16.10;10.73;;;;;;;;;;5111485;27;20773;-85
2021/06/24 10:27:38;;;;;;;14.07;10.82;;;;;;;;;;5111614;27;20361;-81
2021/06/24 10:30:10;;;;;;;14.25;10.27;;;;;;;;;;5108388;28;20471;-84
2021/06/24 10:32:36;;;;;;;11.80;8.88;;;;;;;;;;5109265;27;20396;-84
2021/06/24 10:35:04;;;;;;;12.90;9.00;;;;;;;;;;5111294;27;20424;-82
2021/06/24 10:37:31;;;;;;;11.82;8.80;;;;;;;;;;5127494;27;20425;-82
2021/06/24 10:39:58;;;;;;;13.43;8.80;;;;;;;;;;5127769;27;20373;-83
2021/06/24 10:42:28;;;;;;;13.37;9.07;;;;;;;;;;5127934;27;20387;-82
2021/06/24 10:44:56;;;;;;;10.98;7.88;;;;;;;;;;5128202;28;20381;-81
2021/06/24 10:47:33;;;;;;;9.27;7.45;;;;;;;;;;5127509;28;20361;-82
2021/06/24 10:50:18;;;;;;;11.88;7.50;;;;;;;;;;5124237;28;20373;-87
2021/06/24 10:52:44;;;;;;;9.68;7.28;;;;;;;;;;5125582;28;20476;-84
2021/06/24 10:55:29;;;;;;;10.52;7.10;;;;;;;;;;5125968;28;20384;-86
2021/06/24 10:57:55;;;;;;;9.95;7.45;;;;;;;;;;5125405;28;20436;-87
2021/06/24 11:00:43;;;;;;;13.00;7.47;;;;;;;;;;5121517;28;20409;-87
2021/06/24 11:03:10;;;;;;;10.85;7.22;;;;;;;;;;5125878;28;20365;-86
2021/06/24 11:05:40;;;;;;;11.23;7.10;;;;;;;;;;5127283;28;20365;-86
2021/06/24 11:08:11;;;;;;;11.85;6.57;;;;;;;;;;5126467;28;20381;-89
2021/06/24 11:10:56;;;;;;;12.33;6.57;;;;;;;;;;5125427;28;20777;-83
2021/06/24 11:13:37;;;;;;;10.38;6.85;;;;;;;;;;5125495;28;20412;-88
2021/06/24 11:16:10;;;;;;;10.35;6.40;;;;;;;;;;5127262;28;20380;-85
2021/06/24 11:18:36;;;;;;;12.35;7.10;;;;;;;;;;5127207;28;20941;-85
2021/06/24 11:21:11;;;;;;;9.20;6.57;;;;;;;;;;5124875;27;20407;-86
2021/06/24 11:23:48;;;;;;;11.23;7.18;;;;;;;;;;5123198;28;20850;-87
2021/06/24 11:26:17;;;;;;;10.85;7.07;;;;;;;;;;5122744;28;20402;-87
2021/06/24 11:28:51;;;;;;;10.68;6.80;;;;;;;;;;5127531;28;20428;-86
2021/06/24 11:31:20;;;;;;;11.07;7.22;;;;;;;;;;5124895;28;20443;-85
2021/06/24 11:36:28;;;;;;;12.00;6.63;;;;;;;;;;5124935;28;20893;-85
2021/06/24 11:38:56;;;;;;;11.25;6.45;;;;;;;;;;5125618;28;20373;-89
2021/06/24 11:41:23;;;;;;;10.13;6.60;;;;;;;;;;5125089;28;20432;-83
2021/06/24 11:43:58;;;;;;;12.57;6.72;;;;;;;;;;5126978;28;20373;-85
2021/06/24 11:46:25;;;;;;;9.95;6.50;;;;;;;;;;5128371;28;20353;-87
2021/06/24 11:49:14;;;;;;;10.20;5.97;;;;;;;;;;5126893;28;20381;-85
2021/06/24 12:36:41;;;;;;;12.13;5.63;;;;;;;;;;5131994;27;20450;-87
2021/06/24 12:39:12;;;;;;;7.65;4.78;;;;;;;;;;5125193;27;20464;-86
2021/06/24 13:33:40;;;;;;;7.55;5.10;;;;;;;;;;5132177;27;21045;-86
2021/06/24 13:36:20;;;;;;;8.00;4.80;;;;;;;;;;5126861;27;20385;-88
2021/06/24 13:38:56;;;;;;;9.88;5.25;;;;;;;;;;5123660;27;20369;-87
2021/06/24 13:41:24;;;;;;;8.50;5.13;;;;;;;;;;5128725;27;20373;-87
2021/06/24 13:44:02;;;;;;;7.80;4.83;;;;;;;;;;5125261;27;20400;-86
2021/06/24 13:46:30;;;;;;;10.88;5.78;;;;;;;;;;5125596;27;20926;-88
2021/06/24 14:13:27;;;;;;;9.23;7.47;;;;;;;;;;5131439;27;20387;-87
2021/06/24 14:15:55;;;;;;;9.27;6.57;;;;;;;;;;5117180;27;20404;-86
2021/06/24 14:18:40;;;;;;;8.53;6.83;;;;;;;;;;5125716;27;20404;-89
2021/06/24 14:21:10;;;;;;;10.75;7.75;;;;;;;;;;5118511;27;20905;-86
2021/06/24 14:23:37;;;;;;;12.48;7.35;;;;;;;;;;5113102;27;20545;-86
2021/06/24 14:26:05;;;;;;;11.18;7.78;;;;;;;;;;5115015;27;20775;-86
2021/06/24 14:28:32;;;;;;;12.25;8.45;;;;;;;;;;5119905;27;20858;-86
2021/06/24 14:30:58;;;;;;;9.63;7.97;;;;;;;;;;5118028;27;20397;-87
2021/06/24 14:33:29;;;;;;;11.80;8.10;;;;;;;;;;5121380;27;20407;-89
2021/06/24 14:36:00;;;;;;;11.13;8.10;;;;;;;;;;5121295;27;21389;-86
2021/06/24 14:38:28;;;;;;;11.88;8.45;;;;;;;;;;5123772;27;20471;-86
2021/06/24 14:40:58;;;;;;;12.40;8.57;;;;;;;;;;5124948;27;20383;-86
2021/06/24 14:43:26;;;;;;;11.20;8.65;;;;;;;;;;5126832;27;20381;-88
2021/06/24 14:45:53;;;;;;;11.80;9.10;;;;;;;;;;5126217;27;20945;-86
2021/06/24 14:48:20;;;;;;;12.60;8.98;;;;;;;;;;5125745;28;20819;-85
2021/06/24 14:50:46;;;;;;;10.02;8.57;;;;;;;;;;5124806;28;20380;-85
2021/06/24 14:53:14;;;;;;;13.57;8.60;;;;;;;;;;5125164;28;20394;-87
2021/06/24 14:55:40;;;;;;;11.70;9.25;;;;;;;;;;5117891;28;20852;-86
2021/06/24 14:58:07;;;;;;;12.70;9.10;;;;;;;;;;5118248;27;20870;-85
2021/06/24 15:00:34;;;;;;;12.18;9.13;;;;;;;;;;5125653;27;20377;-84
2021/06/24 15:03:00;;;;;;;14.55;11.05;;;;;;;;;;5125765;27;20381;-86
2021/06/24 15:05:27;;;;;;;11.20;9.13;;;;;;;;;;5117314;27;20381;-85
2021/06/24 15:07:54;;;;;;;13.97;9.30;;;;;;;;;;5126104;28;20384;-87
2021/06/24 15:10:20;;;;;;;11.98;9.35;;;;;;;;;;5123000;28;20377;-86
2021/06/24 15:12:46;;;;;;;12.50;9.35;;;;;;;;;;5127018;28;20365;-85
2021/06/24 15:15:12;;;;;;;10.68;9.15;;;;;;;;;;5126760;28;20377;-86
2021/06/24 15:17:45;;;;;;;11.20;9.18;;;;;;;;;;5124008;28;20372;-85
2021/06/24 15:20:13;;;;;;;13.30;9.40;;;;;;;;;;5125517;28;20481;-86
2021/06/24 15:22:43;;;;;;;8.98;7.57;;;;;;;;;;5126780;28;20385;-85
2021/06/24 15:25:10;;;;;;;13.05;9.55;;;;;;;;;;5124864;27;20458;-87
2021/06/24 15:27:36;;;;;;;10.48;7.70;;;;;;;;;;5132397;27;20846;-86
2021/06/24 15:30:03;;;;;;;12.73;9.07;;;;;;;;;;5130642;27;20373;-85
2021/06/24 15:32:29;;;;;;;10.82;8.77;;;;;;;;;;5130967;27;20911;-86
2021/06/24 15:34:55;;;;;;;12.25;9.00;;;;;;;;;;5132614;27;20366;-86
2021/06/24 15:37:21;;;;;;;11.27;8.65;;;;;;;;;;5132728;27;20425;-85
2021/06/24 15:39:47;;;;;;;13.38;9.68;;;;;;;;;;5132339;27;20851;-86
2021/06/24 15:42:13;;;;;;;11.43;8.68;;;;;;;;;;5132188;27;20397;-85
2021/06/24 15:44:39;;;;;;;10.67;8.30;;;;;;;;;;5131631;27;20815;-84
2021/06/24 15:47:06;;;;;;;11.55;9.18;;;;;;;;;;5130022;27;20780;-85
2021/06/24 15:49:32;;;;;;;11.57;8.63;;;;;;;;;;5131669;27;20369;-86
2021/06/24 15:51:58;;;;;;;10.90;8.40;;;;;;;;;;5132468;27;20393;-87
2021/06/24 15:54:25;;;;;;;12.50;9.43;;;;;;;;;;5130355;27;20372;-87
2021/06/24 15:56:51;;;;;;;12.23;9.38;;;;;;;;;;5131300;27;20380;-85
2021/06/24 15:59:17;;;;;;;13.00;9.10;;;;;;;;;;5130422;27;20747;-84
2021/06/24 16:01:43;;;;;;;10.18;8.15;;;;;;;;;;5130578;27;20373;-84
2021/06/24 16:04:09;;;;;;;10.38;8.32;;;;;;;;;;5130760;27;20400;-86
2021/06/24 16:06:35;;;;;;;9.30;5.95;;;;;;;;;;5132588;27;20357;-90
2021/06/24 16:09:02;;;;;;;8.70;5.30;;;;;;;;;;5131248;27;20459;-85
2021/06/24 16:11:33;;;;;;;7.65;4.25;;;;;;;;;;5132109;27;20357;-86
2021/06/24 16:13:59;;;;;;;6.30;4.22;;;;;;;;;;5132074;27;20467;-85
2021/06/24 16:16:28;;;;;;;6.53;4.18;;;;;;;;;;5133075;27;20448;-87
2021/06/24 16:18:54;;;;;;;8.68;3.63;;;;;;;;;;5133092;27;20367;-87
2021/06/24 16:21:20;;;;;;;7.25;4.15;;;;;;;;;;5131343;27;20499;-87
2021/06/24 16:23:46;;;;;;;6.22;4.00;;;;;;;;;;5132870;27;20410;-86
2021/06/24 16:26:12;;;;;;;7.95;4.20;;;;;;;;;;5132065;27;20379;-86
2021/06/24 16:28:38;;;;;;;6.63;3.70;;;;;;;;;;5131513;27;20790;-85
2021/06/24 16:31:04;;;;;;;7.53;3.58;;;;;;;;;;5132229;27;20379;-84
2021/06/24 16:33:30;;;;;;;7.57;3.93;;;;;;;;;;5132171;27;20826;-85
2021/06/24 16:35:56;;;;;;;6.30;3.80;;;;;;;;;;5132264;27;20392;-86
2021/06/24 16:38:23;;;;;;;5.40;3.90;;;;;;;;;;5127670;27;20390;-85
2021/06/24 16:40:52;;;;;;;5.22;3.47;;;;;;;;;;5131256;27;20450;-85
2021/06/24 16:43:18;;;;;;;5.93;3.60;;;;;;;;;;5127720;27;20829;-85
2021/06/24 16:45:44;;;;;;;5.37;3.50;;;;;;;;;;5132631;27;20365;-85
2021/06/24 16:48:10;;;;;;;4.63;3.60;;;;;;;;;;5132267;27;20373;-86
2021/06/24 16:50:37;;;;;;;5.70;3.78;;;;;;;;;;5130439;27;20798;-86
2021/06/24 16:53:03;;;;;;;3.85;3.00;;;;;;;;;;5130780;27;20394;-85
2021/06/24 16:55:35;;;;;;;6.85;3.40;;;;;;;;;;5132883;27;20383;-85
2021/06/24 16:58:02;;;;;;;6.05;3.40;;;;;;;;;;5103003;27;20366;-85
2021/06/24 17:00:28;;;;;;;5.20;3.22;;;;;;;;;;5101730;28;20364;-86
2021/06/24 17:02:54;;;;;;;5.00;3.40;;;;;;;;;;5121095;27;20472;-87
2021/06/24 17:05:20;;;;;;;5.32;3.05;;;;;;;;;;5103121;27;20466;-87
2021/06/24 17:07:46;;;;;;;5.40;3.38;;;;;;;;;;5103745;27;20372;-87
2021/06/24 17:10:13;;;;;;;5.30;3.10;;;;;;;;;;5104564;27;20388;-86
2021/06/24 17:12:40;;;;;;;6.47;3.50;;;;;;;;;;5121374;27;20362;-85
2021/06/24 17:15:16;;;;;;;7.43;3.60;;;;;;;;;;5104462;27;20375;-87
2021/06/24 17:17:43;;;;;;;5.85;3.42;;;;;;;;;;5110714;27;20369;-85
2021/06/24 17:20:11;;;;;;;4.50;3.38;;;;;;;;;;5112935;27;20361;-86
2021/06/24 17:22:39;;;;;;;6.72;4.68;;;;;;;;;;5111742;27;20912;-88
2021/06/24 17:25:06;;;;;;;6.07;3.45;;;;;;;;;;5112624;27;20467;-86
2021/06/24 17:27:33;;;;;;;6.55;3.20;;;;;;;;;;5116562;27;20353;-86
2021/06/24 17:29:59;;;;;;;3.55;3.00;;;;;;;;;;5121446;27;20858;-85
2021/06/24 17:32:26;;;;;;;5.25;3.17;;;;;;;;;;5120946;27;20404;-86
2021/06/24 17:34:52;;;;;;;4.77;3.20;;;;;;;;;;5121696;27;20360;-86
2021/06/24 17:37:18;;;;;;;4.70;3.33;;;;;;;;;;5122838;27;20927;-85
2021/06/24 17:39:45;;;;;;;4.63;3.28;;;;;;;;;;5141053;27;20379;-86
2021/06/24 17:42:14;;;;;;;6.27;3.20;;;;;;;;;;5121248;27;20742;-87
2021/06/24 17:44:43;;;;;;;5.77;3.67;;;;;;;;;;5120656;27;20385;-87
2021/06/24 17:47:09;;;;;;;5.65;3.70;;;;;;;;;;5112099;27;20387;-87
2021/06/24 17:49:35;;;;;;;6.15;3.63;;;;;;;;;;5112654;27;20373;-87
2021/06/24 17:52:01;;;;;;;4.45;3.03;;;;;;;;;;5121247;27;20394;-87
2021/06/24 17:54:27;;;;;;;5.25;3.47;;;;;;;;;;5117101;27;20911;-86
2021/06/24 17:56:54;;;;;;;4.00;3.35;;;;;;;;;;5120914;27;20381;-87
2021/06/24 17:59:21;;;;;;;4.82;3.20;;;;;;;;;;5113185;27;20404;-85
2021/06/24 18:01:48;;;;;;;6.20;3.55;;;;;;;;;;5115673;27;20443;-86
2021/06/24 18:04:17;;;;;;;6.38;3.47;;;;;;;;;;5113438;27;20458;-85
2021/06/24 18:06:47;;;;;;;5.15;3.70;;;;;;;;;;5130264;27;20373;-87
2021/06/24 18:09:13;;;;;;;5.78;3.97;;;;;;;;;;5110940;27;20368;-87
2021/06/24 18:11:40;;;;;;;3.97;3.50;;;;;;;;;;5109903;27;20369;-85
2021/06/24 18:14:06;;;;;;;5.20;3.80;;;;;;;;;;5112120;27;20742;-86
2021/06/24 18:16:33;;;;;;;5.30;4.72;;;;;;;;;;5109585;27;20369;-87
2021/06/24 18:18:59;;;;;;;4.93;3.78;;;;;;;;;;5109739;27;20822;-87
2021/06/24 18:21:25;;;;;;;7.97;3.95;;;;;;;;;;5109084;27;20380;-87
2021/06/24 18:23:51;;;;;;;5.78;3.83;;;;;;;;;;5111274;27;20389;-86
2021/06/24 18:26:17;;;;;;;5.10;3.72;;;;;;;;;;5111766;27;20377;-86
2021/06/24 18:28:44;;;;;;;8.38;4.45;;;;;;;;;;5112168;27;20365;-88
2021/06/24 18:31:14;;;;;;;7.90;4.18;;;;;;;;;;5111517;27;20420;-87
2021/06/24 18:33:41;;;;;;;4.72;3.92;;;;;;;;;;5111801;27;20382;-87
2021/06/24 18:36:08;;;;;;;6.43;4.18;;;;;;;;;;5111915;27;20399;-87
2021/06/24 18:38:38;;;;;;;7.05;4.65;;;;;;;;;;5107926;27;20379;-87
2021/06/24 18:41:09;;;;;;;8.32;4.53;;;;;;;;;;5111641;27;20746;-87
2021/06/24 18:43:36;;;;;;;7.78;5.10;;;;;;;;;;5109331;28;20742;-86
2021/06/24 18:46:02;;;;;;;5.40;4.50;;;;;;;;;;5112027;27;20400;-87
2021/06/24 18:48:28;;;;;;;7.78;4.78;;;;;;;;;;5111059;28;20377;-84
2021/06/24 18:50:54;;;;;;;5.63;4.65;;;;;;;;;;5111985;28;20369;-88
2021/06/24 18:53:20;;;;;;;5.93;4.30;;;;;;;;;;5112100;28;20722;-87
2021/06/24 18:55:47;;;;;;;6.38;5.32;;;;;;;;;;5111149;28;20381;-87
2021/06/24 18:58:13;;;;;;;11.50;8.18;;;;;;;;;;5112304;28;20365;-86
2021/06/24 19:00:39;;;;;;;7.43;5.05;;;;;;;;;;5112561;27;20365;-85
2021/06/24 19:03:07;;;;;;;7.70;4.88;;;;;;;;;;5116077;27;20499;-87
2021/06/24 19:05:33;;;;;;;5.50;4.77;;;;;;;;;;5115260;27;20462;-87
2021/06/24 19:08:00;;;;;;;7.43;5.72;;;;;;;;;;5113476;27;20919;-87
2021/06/24 19:10:26;;;;;;;6.82;5.50;;;;;;;;;;5114641;27;20377;-87
2021/06/24 19:12:52;;;;;;;6.95;5.13;;;;;;;;;;5116007;27;20373;-86
2021/06/24 19:15:18;;;;;;;6.35;5.25;;;;;;;;;;5115979;27;20747;-85
2021/06/24 19:17:44;;;;;;;5.57;4.60;;;;;;;;;;5115371;27;20373;-87
2021/06/24 19:20:11;;;;;;;6.25;5.28;;;;;;;;;;5115892;27;20419;-88
2021/06/24 19:22:37;;;;;;;5.95;5.22;;;;;;;;;;5116067;27;20377;-86
2021/06/24 19:25:04;;;;;;;5.88;4.82;;;;;;;;;;5115971;27;20459;-87
2021/06/24 19:27:30;;;;;;;6.43;5.20;;;;;;;;;;5111976;27;21748;-87
2021/06/24 19:29:57;;;;;;;5.47;4.97;;;;;;;;;;5108611;27;20389;-86
2021/06/24 19:32:26;;;;;;;8.55;5.25;;;;;;;;;;5112017;27;20392;-86
2021/06/24 19:34:54;;;;;;;5.93;5.22;;;;;;;;;;5110078;27;20418;-87
2021/06/24 20:11:30;;;;;;;5.93;5.13;;;;;;;;;;5136973;27;20907;-86
2021/06/24 20:32:36;;;;;;;5.70;5.20;;;;;;;;;;5020166;28;20418;-86
2021/06/24 20:35:03;;;;;;;6.18;5.57;;;;;;;;;;5091116;27;20373;-87
2021/06/24 20:37:31;;;;;;;6.68;6.07;;;;;;;;;;5111176;27;20404;-87
2021/06/24 20:39:57;;;;;;;7.43;6.07;;;;;;;;;;5114747;27;20366;-87
2021/06/24 20:42:23;;;;;;;7.55;5.75;;;;;;;;;;5133360;27;20357;-87
2021/06/24 20:44:49;;;;;;;6.68;5.53;;;;;;;;;;5114739;27;20388;-87
2021/06/24 20:47:15;;;;;;;6.68;6.03;;;;;;;;;;5114875;27;20368;-87
2021/06/24 20:50:06;;;;;;;7.35;5.93;;;;;;;;;;5116553;27;20388;-86
2021/06/24 20:56:01;;;;;;;7.00;6.27;;;;;;;;;;5071821;28;20488;-86
2021/06/24 21:02:20;;;;;;;7.03;6.32;;;;;;;;;;5052840;28;20423;-87
2021/06/24 21:26:45;;;;;;;6.17;5.67;;;;;;;;;;5035546;28;20359;-86
2021/06/24 21:32:51;;;;;;;6.80;6.20;;;;;;;;;;5112785;28;20909;-87
2021/06/24 21:35:19;;;;;;;8.02;6.20;;;;;;;;;;5087037;28;20383;-87
2021/06/24 21:37:45;;;;;;;7.00;6.15;;;;;;;;;;5127732;27;20458;-86
2021/06/24 21:40:12;;;;;;;7.80;6.45;;;;;;;;;;5131474;27;20373;-86
2021/06/24 21:42:38;;;;;;;6.65;6.00;;;;;;;;;;5130947;27;20372;-87
2021/06/24 21:45:06;;;;;;;6.53;5.85;;;;;;;;;;5130965;27;20373;-86
2021/06/24 21:47:32;;;;;;;8.10;7.03;;;;;;;;;;5130549;27;20373;-86
2021/06/24 21:49:58;;;;;;;8.37;6.83;;;;;;;;;;5130582;27;20353;-86
2021/06/24 21:52:24;;;;;;;7.75;6.95;;;;;;;;;;5130454;27;20854;-85
2021/06/24 21:54:50;;;;;;;8.87;7.20;;;;;;;;;;5130092;27;20801;-86
2021/06/24 21:57:16;;;;;;;9.17;6.83;;;;;;;;;;5129699;27;20926;-86
2021/06/24 21:59:42;;;;;;;7.90;7.07;;;;;;;;;;5129783;27;20773;-87
2021/06/24 22:02:08;;;;;;;7.80;7.10;;;;;;;;;;5129736;27;20422;-87
2021/06/24 22:04:35;;;;;;;7.68;6.85;;;;;;;;;;5129830;27;20396;-86
2021/06/24 22:07:13;;;;;;;9.57;6.93;;;;;;;;;;5130771;27;20373;-87
2021/06/24 22:09:39;;;;;;;7.80;7.00;;;;;;;;;;5133997;27;20459;-86
2021/06/24 22:12:08;;;;;;;8.20;7.13;;;;;;;;;;5128765;27;20361;-86
2021/06/24 22:14:35;;;;;;;7.87;6.90;;;;;;;;;;5128687;27;20408;-86
2021/06/24 22:17:01;;;;;;;8.07;7.28;;;;;;;;;;5129334;27;20357;-85
2021/06/24 22:19:28;;;;;;;9.50;7.43;;;;;;;;;;5129340;27;20373;-85
2021/06/24 22:21:54;;;;;;;7.60;6.80;;;;;;;;;;5129086;27;20862;-86
2021/06/24 22:24:20;;;;;;;7.75;6.78;;;;;;;;;;5127915;27;20431;-86
2021/06/24 22:26:47;;;;;;;7.70;6.90;;;;;;;;;;5128604;27;20377;-87
2021/06/24 22:29:13;;;;;;;8.43;7.53;;;;;;;;;;5128572;27;21216;-86
2021/06/24 22:31:39;;;;;;;7.65;6.85;;;;;;;;;;5127721;27;20518;-86
2021/06/24 22:34:06;;;;;;;8.20;7.38;;;;;;;;;;5129422;27;20376;-86
2021/06/24 22:36:32;;;;;;;7.72;6.63;;;;;;;;;;5124262;27;20875;-86
2021/06/24 22:38:58;;;;;;;8.35;6.70;;;;;;;;;;5123091;27;20897;-86
2021/06/24 22:41:24;;;;;;;8.10;6.95;;;;;;;;;;5126047;27;20448;-87
2021/06/24 22:43:50;;;;;;;8.60;7.63;;;;;;;;;;5128629;27;20404;-86
2021/06/24 22:46:17;;;;;;;7.50;6.80;;;;;;;;;;5128860;27;20454;-85
2021/06/24 22:48:43;;;;;;;7.68;6.90;;;;;;;;;;5141241;27;20371;-86
2021/06/24 22:51:10;;;;;;;8.32;7.50;;;;;;;;;;5149971;27;20845;-86
2021/06/24 22:53:36;;;;;;;8.18;7.05;;;;;;;;;;5113656;27;20448;-86
2021/06/24 22:56:03;;;;;;;8.75;7.95;;;;;;;;;;5112328;28;20859;-86
2021/06/24 22:58:29;;;;;;;6.90;6.20;;;;;;;;;;5111007;28;20380;-85
2021/06/24 23:00:55;;;;;;;7.07;6.38;;;;;;;;;;5111777;28;20377;-86
2021/06/24 23:03:22;;;;;;;9.13;7.22;;;;;;;;;;5111798;28;20663;-85
2021/06/24 23:05:48;;;;;;;7.53;6.82;;;;;;;;;;5112579;28;20380;-86
2021/06/24 23:08:14;;;;;;;7.90;7.10;;;;;;;;;;5113022;28;20379;-85
2021/06/24 23:10:40;;;;;;;8.45;7.10;;;;;;;;;;5112710;27;20373;-86
2021/06/24 23:13:06;;;;;;;8.13;7.15;;;;;;;;;;5112853;27;20451;-86
2021/06/24 23:15:32;;;;;;;8.70;7.60;;;;;;;;;;5112448;28;20418;-86
2021/06/24 23:17:58;;;;;;;8.43;7.63;;;;;;;;;;5114682;27;20763;-86
2021/06/24 23:20:24;;;;;;;8.00;7.30;;;;;;;;;;5112756;28;20857;-87
2021/06/24 23:22:50;;;;;;;7.80;7.03;;;;;;;;;;5112933;28;20402;-88
2021/06/24 23:25:17;;;;;;;7.55;6.60;;;;;;;;;;5112677;27;20396;-86
2021/06/24 23:27:43;;;;;;;7.57;6.88;;;;;;;;;;5112432;28;20368;-86
2021/06/24 23:30:09;;;;;;;7.97;7.18;;;;;;;;;;5111499;28;20395;-86
2021/06/24 23:32:35;;;;;;;7.97;7.17;;;;;;;;;;5111655;28;20357;-86
2021/06/24 23:35:02;;;;;;;8.50;7.33;;;;;;;;;;5108798;28;20869;-87
2021/06/24 23:37:28;;;;;;;8.82;8.02;;;;;;;;;;5111597;28;20368;-87
2021/06/24 23:39:54;;;;;;;8.25;7.35;;;;;;;;;;5111569;27;20417;-86
2021/06/24 23:42:20;;;;;;;8.25;7.35;;;;;;;;;;5112833;28;20866;-87
2021/06/24 23:44:46;;;;;;;8.15;7.30;;;;;;;;;;5112297;28;20407;-87
2021/06/24 23:47:12;;;;;;;8.98;7.50;;;;;;;;;;5113467;27;20380;-86
2021/06/24 23:49:38;;;;;;;8.18;7.35;;;;;;;;;;5115258;27;20353;-87
2021/06/24 23:52:04;;;;;;;7.72;7.07;;;;;;;;;;5115711;27;20447;-87
2021/06/24 23:54:30;;;;;;;8.15;6.95;;;;;;;;;;5115391;27;20365;-87
2021/06/24 23:56:56;;;;;;;8.90;8.07;;;;;;;;;;5115435;27;20451;-87
2021/06/24 23:59:22;;;;;;;8.70;7.90;;;;;;;;;;5115357;27;20761;-86
